sensor_id;sensor_type;location;lat;lon;timestamp;P1;durP1;ratioP1;P2;durP2;ratioP2
68449;SDS011;67758;39.572;2.652;2023-10-13T00:01:55;14.25;;;6.85;;
68449;SDS011;67758;39.572;2.652;2023-10-13T00:04:26;16.55;;;6.85;;
68449;SDS011;67758;39.572;2.652;2023-10-13T00:06:53;12.93;;;6.72;;
68449;SDS011;67758;39.572;2.652;2023-10-13T00:09:31;15.25;;;6.72;;
68449;SDS011;67758;39.572;2.652;2023-10-13T00:12:01;20.00;;;6.18;;
68449;SDS011;67758;39.572;2.652;2023-10-13T00:14:29;13.43;;;6.28;;
68449;SDS011;67758;39.572;2.652;2023-10-13T00:17:03;17.55;;;6.57;;
68449;SDS011;67758;39.572;2.652;2023-10-13T00:19:33;15.13;;;7.00;;
68449;SDS011;67758;39.572;2.652;2023-10-13T00:22:05;14.05;;;6.20;;
68449;SDS011;67758;39.572;2.652;2023-10-13T00:24:39;15.60;;;7.00;;
68449;SDS011;67758;39.572;2.652;2023-10-13T00:27:14;19.23;;;7.07;;
68449;SDS011;67758;39.572;2.652;2023-10-13T00:29:57;15.27;;;6.68;;
68449;SDS011;67758;39.572;2.652;2023-10-13T00:32:46;14.00;;;6.32;;
68449;SDS011;67758;39.572;2.652;2023-10-13T00:35:26;12.35;;;6.25;;
68449;SDS011;67758;39.572;2.652;2023-10-13T00:38:05;12.55;;;5.68;;
68449;SDS011;67758;39.572;2.652;2023-10-13T00:40:42;12.10;;;6.38;;
68449;SDS011;67758;39.572;2.652;2023-10-13T00:43:19;12.90;;;6.55;;
68449;SDS011;67758;39.572;2.652;2023-10-13T00:45:55;14.57;;;6.05;;
68449;SDS011;67758;39.572;2.652;2023-10-13T00:48:34;11.98;;;5.60;;
68449;SDS011;67758;39.572;2.652;2023-10-13T00:51:07;11.40;;;5.95;;
68449;SDS011;67758;39.572;2.652;2023-10-13T00:53:43;14.50;;;6.13;;
68449;SDS011;67758;39.572;2.652;2023-10-13T00:56:10;13.15;;;6.20;;
68449;SDS011;67758;39.572;2.652;2023-10-13T00:58:47;12.90;;;6.20;;
68449;SDS011;67758;39.572;2.652;2023-10-13T01:01:17;15.50;;;6.32;;
68449;SDS011;67758;39.572;2.652;2023-10-13T01:03:53;11.52;;;5.70;;
68449;SDS011;67758;39.572;2.652;2023-10-13T01:06:24;16.07;;;5.97;;
68449;SDS011;67758;39.572;2.652;2023-10-13T01:08:59;14.18;;;6.07;;
68449;SDS011;67758;39.572;2.652;2023-10-13T01:11:44;12.80;;;6.75;;
68449;SDS011;67758;39.572;2.652;2023-10-13T01:14:14;15.93;;;6.80;;
68449;SDS011;67758;39.572;2.652;2023-10-13T01:16:44;14.63;;;6.68;;
68449;SDS011;67758;39.572;2.652;2023-10-13T01:19:11;14.00;;;6.13;;
68449;SDS011;67758;39.572;2.652;2023-10-13T01:21:39;17.77;;;6.72;;
68449;SDS011;67758;39.572;2.652;2023-10-13T01:24:06;12.93;;;6.25;;
68449;SDS011;67758;39.572;2.652;2023-10-13T01:26:35;14.85;;;6.63;;
68449;SDS011;67758;39.572;2.652;2023-10-13T01:29:04;16.23;;;6.05;;
68449;SDS011;67758;39.572;2.652;2023-10-13T01:31:38;12.70;;;5.63;;
68449;SDS011;67758;39.572;2.652;2023-10-13T01:34:11;14.93;;;6.18;;
68449;SDS011;67758;39.572;2.652;2023-10-13T01:36:38;12.95;;;6.43;;
68449;SDS011;67758;39.572;2.652;2023-10-13T01:39:05;11.05;;;6.20;;
68449;SDS011;67758;39.572;2.652;2023-10-13T01:41:32;16.77;;;6.50;;
68449;SDS011;67758;39.572;2.652;2023-10-13T01:44:02;11.57;;;5.77;;
68449;SDS011;67758;39.572;2.652;2023-10-13T01:46:29;14.73;;;5.90;;
68449;SDS011;67758;39.572;2.652;2023-10-13T01:48:54;14.13;;;6.22;;
68449;SDS011;67758;39.572;2.652;2023-10-13T01:51:22;17.77;;;5.90;;
68449;SDS011;67758;39.572;2.652;2023-10-13T01:53:53;11.68;;;6.00;;
68449;SDS011;67758;39.572;2.652;2023-10-13T01:56:22;12.35;;;6.45;;
68449;SDS011;67758;39.572;2.652;2023-10-13T01:58:54;11.77;;;6.45;;
68449;SDS011;67758;39.572;2.652;2023-10-13T02:01:20;12.23;;;5.77;;
68449;SDS011;67758;39.572;2.652;2023-10-13T02:03:57;14.85;;;5.95;;
68449;SDS011;67758;39.572;2.652;2023-10-13T02:06:33;15.82;;;6.30;;
68449;SDS011;67758;39.572;2.652;2023-10-13T02:09:05;13.32;;;5.85;;
68449;SDS011;67758;39.572;2.652;2023-10-13T02:11:51;15.23;;;6.87;;
68449;SDS011;67758;39.572;2.652;2023-10-13T02:14:20;20.50;;;6.78;;
68449;SDS011;67758;39.572;2.652;2023-10-13T02:16:51;15.30;;;6.13;;
68449;SDS011;67758;39.572;2.652;2023-10-13T02:19:21;13.88;;;6.50;;
68449;SDS011;67758;39.572;2.652;2023-10-13T02:21:52;12.98;;;5.88;;
68449;SDS011;67758;39.572;2.652;2023-10-13T02:24:24;16.17;;;6.40;;
68449;SDS011;67758;39.572;2.652;2023-10-13T02:26:55;13.98;;;6.47;;
68449;SDS011;67758;39.572;2.652;2023-10-13T02:29:28;14.35;;;6.32;;
68449;SDS011;67758;39.572;2.652;2023-10-13T02:31:54;14.68;;;6.10;;
68449;SDS011;67758;39.572;2.652;2023-10-13T02:34:20;15.27;;;6.97;;
68449;SDS011;67758;39.572;2.652;2023-10-13T02:36:48;17.50;;;7.18;;
68449;SDS011;67758;39.572;2.652;2023-10-13T02:39:18;15.02;;;6.35;;
68449;SDS011;67758;39.572;2.652;2023-10-13T02:41:51;15.25;;;6.18;;
68449;SDS011;67758;39.572;2.652;2023-10-13T02:44:17;15.95;;;6.43;;
68449;SDS011;67758;39.572;2.652;2023-10-13T02:46:59;12.68;;;6.45;;
68449;SDS011;67758;39.572;2.652;2023-10-13T02:49:27;14.05;;;7.13;;
68449;SDS011;67758;39.572;2.652;2023-10-13T02:51:59;12.23;;;6.45;;
68449;SDS011;67758;39.572;2.652;2023-10-13T02:54:30;14.18;;;6.05;;
68449;SDS011;67758;39.572;2.652;2023-10-13T02:57:02;15.10;;;6.68;;
68449;SDS011;67758;39.572;2.652;2023-10-13T02:59:30;15.75;;;6.43;;
68449;SDS011;67758;39.572;2.652;2023-10-13T03:02:04;13.15;;;7.03;;
68449;SDS011;67758;39.572;2.652;2023-10-13T03:04:43;12.32;;;6.32;;
68449;SDS011;67758;39.572;2.652;2023-10-13T03:07:10;17.40;;;6.32;;
68449;SDS011;67758;39.572;2.652;2023-10-13T03:09:35;14.07;;;6.75;;
68449;SDS011;67758;39.572;2.652;2023-10-13T03:12:02;17.58;;;6.85;;
68449;SDS011;67758;39.572;2.652;2023-10-13T03:14:29;11.27;;;6.25;;
68449;SDS011;67758;39.572;2.652;2023-10-13T03:17:02;15.35;;;6.72;;
68449;SDS011;67758;39.572;2.652;2023-10-13T03:19:31;14.93;;;6.65;;
68449;SDS011;67758;39.572;2.652;2023-10-13T03:22:04;14.32;;;6.63;;
68449;SDS011;67758;39.572;2.652;2023-10-13T03:24:38;16.77;;;6.90;;
68449;SDS011;67758;39.572;2.652;2023-10-13T03:27:10;15.80;;;6.90;;
68449;SDS011;67758;39.572;2.652;2023-10-13T03:29:42;12.18;;;6.45;;
68449;SDS011;67758;39.572;2.652;2023-10-13T03:32:17;12.57;;;6.53;;
68449;SDS011;67758;39.572;2.652;2023-10-13T03:34:46;14.20;;;7.30;;
68449;SDS011;67758;39.572;2.652;2023-10-13T03:37:35;14.70;;;6.90;;
68449;SDS011;67758;39.572;2.652;2023-10-13T03:40:04;13.50;;;7.47;;
68449;SDS011;67758;39.572;2.652;2023-10-13T03:42:55;15.40;;;6.70;;
68449;SDS011;67758;39.572;2.652;2023-10-13T03:45:40;14.98;;;6.97;;
68449;SDS011;67758;39.572;2.652;2023-10-13T03:50:38;20.27;;;7.10;;
68449;SDS011;67758;39.572;2.652;2023-10-13T03:53:34;17.33;;;7.35;;
68449;SDS011;67758;39.572;2.652;2023-10-13T03:56:00;15.55;;;6.90;;
68449;SDS011;67758;39.572;2.652;2023-10-13T03:58:55;14.70;;;7.47;;
68449;SDS011;67758;39.572;2.652;2023-10-13T04:01:38;14.80;;;7.65;;
68449;SDS011;67758;39.572;2.652;2023-10-13T04:04:15;16.92;;;7.07;;
68449;SDS011;67758;39.572;2.652;2023-10-13T04:06:56;15.70;;;7.43;;
68449;SDS011;67758;39.572;2.652;2023-10-13T04:09:42;17.67;;;7.97;;
68449;SDS011;67758;39.572;2.652;2023-10-13T04:12:28;15.10;;;8.23;;
68449;SDS011;67758;39.572;2.652;2023-10-13T04:15:12;15.38;;;7.00;;
68449;SDS011;67758;39.572;2.652;2023-10-13T04:17:43;16.45;;;7.43;;
68449;SDS011;67758;39.572;2.652;2023-10-13T04:20:11;14.52;;;6.70;;
68449;SDS011;67758;39.572;2.652;2023-10-13T04:22:38;16.38;;;7.60;;
68449;SDS011;67758;39.572;2.652;2023-10-13T04:25:20;16.10;;;7.57;;
68449;SDS011;67758;39.572;2.652;2023-10-13T04:28:06;20.90;;;6.95;;
68449;SDS011;67758;39.572;2.652;2023-10-13T04:33:23;16.67;;;7.55;;
68449;SDS011;67758;39.572;2.652;2023-10-13T04:36:16;17.40;;;7.82;;
68449;SDS011;67758;39.572;2.652;2023-10-13T04:38:52;20.52;;;7.00;;
68449;SDS011;67758;39.572;2.652;2023-10-13T04:41:30;15.77;;;7.25;;
68449;SDS011;67758;39.572;2.652;2023-10-13T04:44:23;15.88;;;7.45;;
68449;SDS011;67758;39.572;2.652;2023-10-13T04:46:55;15.48;;;7.50;;
68449;SDS011;67758;39.572;2.652;2023-10-13T04:49:24;18.15;;;7.40;;
68449;SDS011;67758;39.572;2.652;2023-10-13T04:51:57;15.27;;;7.20;;
68449;SDS011;67758;39.572;2.652;2023-10-13T04:54:28;38.22;;;10.73;;
68449;SDS011;67758;39.572;2.652;2023-10-13T04:57:13;31.05;;;11.10;;
68449;SDS011;67758;39.572;2.652;2023-10-13T04:59:44;16.10;;;7.88;;
68449;SDS011;67758;39.572;2.652;2023-10-13T05:02:31;21.58;;;8.75;;
68449;SDS011;67758;39.572;2.652;2023-10-13T05:05:03;17.60;;;8.52;;
68449;SDS011;67758;39.572;2.652;2023-10-13T05:07:32;15.45;;;7.57;;
68449;SDS011;67758;39.572;2.652;2023-10-13T05:10:17;16.33;;;7.55;;
68449;SDS011;67758;39.572;2.652;2023-10-13T05:13:01;14.30;;;6.53;;
68449;SDS011;67758;39.572;2.652;2023-10-13T05:15:49;18.33;;;7.65;;
68449;SDS011;67758;39.572;2.652;2023-10-13T05:18:34;19.08;;;8.05;;
68449;SDS011;67758;39.572;2.652;2023-10-13T05:21:19;16.40;;;7.65;;
68449;SDS011;67758;39.572;2.652;2023-10-13T05:24:04;18.52;;;7.57;;
68449;SDS011;67758;39.572;2.652;2023-10-13T05:26:49;15.75;;;7.63;;
68449;SDS011;67758;39.572;2.652;2023-10-13T05:29:33;17.70;;;8.32;;
68449;SDS011;67758;39.572;2.652;2023-10-13T05:32:17;17.67;;;8.55;;
68449;SDS011;67758;39.572;2.652;2023-10-13T05:35:01;21.15;;;8.77;;
68449;SDS011;67758;39.572;2.652;2023-10-13T05:37:45;18.13;;;7.72;;
68449;SDS011;67758;39.572;2.652;2023-10-13T05:40:29;20.67;;;8.77;;
68449;SDS011;67758;39.572;2.652;2023-10-13T05:43:13;17.30;;;8.85;;
68449;SDS011;67758;39.572;2.652;2023-10-13T05:46:01;16.33;;;7.55;;
68449;SDS011;67758;39.572;2.652;2023-10-13T05:48:46;16.23;;;7.72;;
68449;SDS011;67758;39.572;2.652;2023-10-13T05:51:27;17.42;;;8.45;;
68449;SDS011;67758;39.572;2.652;2023-10-13T05:54:13;23.98;;;7.50;;
68449;SDS011;67758;39.572;2.652;2023-10-13T05:56:39;17.38;;;7.47;;
68449;SDS011;67758;39.572;2.652;2023-10-13T05:59:24;19.48;;;8.38;;
68449;SDS011;67758;39.572;2.652;2023-10-13T06:02:09;16.98;;;7.63;;
68449;SDS011;67758;39.572;2.652;2023-10-13T06:04:53;17.45;;;7.50;;
68449;SDS011;67758;39.572;2.652;2023-10-13T06:07:37;16.90;;;7.72;;
68449;SDS011;67758;39.572;2.652;2023-10-13T06:10:21;12.70;;;6.75;;
68449;SDS011;67758;39.572;2.652;2023-10-13T06:13:06;16.60;;;7.07;;
68449;SDS011;67758;39.572;2.652;2023-10-13T06:15:51;20.35;;;8.20;;
68449;SDS011;67758;39.572;2.652;2023-10-13T06:18:35;14.38;;;7.70;;
68449;SDS011;67758;39.572;2.652;2023-10-13T06:21:22;17.10;;;7.30;;
68449;SDS011;67758;39.572;2.652;2023-10-13T06:24:09;15.77;;;6.78;;
68449;SDS011;67758;39.572;2.652;2023-10-13T06:26:53;16.35;;;7.30;;
68449;SDS011;67758;39.572;2.652;2023-10-13T06:29:37;14.45;;;6.38;;
68449;SDS011;67758;39.572;2.652;2023-10-13T06:32:03;17.67;;;6.67;;
68449;SDS011;67758;39.572;2.652;2023-10-13T06:34:38;20.52;;;7.10;;
68449;SDS011;67758;39.572;2.652;2023-10-13T06:37:16;15.85;;;7.50;;
68449;SDS011;67758;39.572;2.652;2023-10-13T06:39:54;13.13;;;6.97;;
68449;SDS011;67758;39.572;2.652;2023-10-13T06:42:27;13.65;;;6.68;;
68449;SDS011;67758;39.572;2.652;2023-10-13T06:44:57;17.25;;;6.88;;
68449;SDS011;67758;39.572;2.652;2023-10-13T06:47:25;19.33;;;7.50;;
68449;SDS011;67758;39.572;2.652;2023-10-13T06:49:53;19.23;;;7.10;;
68449;SDS011;67758;39.572;2.652;2023-10-13T06:52:22;14.07;;;6.78;;
68449;SDS011;67758;39.572;2.652;2023-10-13T06:54:54;18.10;;;7.82;;
68449;SDS011;67758;39.572;2.652;2023-10-13T06:57:20;22.27;;;8.07;;
68449;SDS011;67758;39.572;2.652;2023-10-13T06:59:47;24.70;;;9.52;;
68449;SDS011;67758;39.572;2.652;2023-10-13T07:02:13;19.88;;;7.95;;
68449;SDS011;67758;39.572;2.652;2023-10-13T07:04:47;21.15;;;8.38;;
68449;SDS011;67758;39.572;2.652;2023-10-13T07:07:13;17.80;;;7.22;;
68449;SDS011;67758;39.572;2.652;2023-10-13T07:09:43;19.40;;;7.32;;
68449;SDS011;67758;39.572;2.652;2023-10-13T07:12:29;19.20;;;7.13;;
68449;SDS011;67758;39.572;2.652;2023-10-13T07:14:58;19.58;;;7.15;;
68449;SDS011;67758;39.572;2.652;2023-10-13T07:17:44;16.13;;;7.20;;
68449;SDS011;67758;39.572;2.652;2023-10-13T07:20:12;16.33;;;7.30;;
68449;SDS011;67758;39.572;2.652;2023-10-13T07:22:43;22.75;;;7.38;;
68449;SDS011;67758;39.572;2.652;2023-10-13T07:25:34;15.10;;;6.20;;
68449;SDS011;67758;39.572;2.652;2023-10-13T07:28:06;17.75;;;6.40;;
68449;SDS011;67758;39.572;2.652;2023-10-13T07:30:34;18.20;;;7.50;;
68449;SDS011;67758;39.572;2.652;2023-10-13T07:33:35;18.63;;;6.97;;
68449;SDS011;67758;39.572;2.652;2023-10-13T07:38:50;14.20;;;6.00;;
68449;SDS011;67758;39.572;2.652;2023-10-13T07:41:24;14.18;;;7.10;;
68449;SDS011;67758;39.572;2.652;2023-10-13T07:43:55;16.98;;;7.00;;
68449;SDS011;67758;39.572;2.652;2023-10-13T07:46:24;16.88;;;7.07;;
68449;SDS011;67758;39.572;2.652;2023-10-13T07:48:56;21.05;;;7.30;;
68449;SDS011;67758;39.572;2.652;2023-10-13T07:51:35;20.10;;;7.83;;
68449;SDS011;67758;39.572;2.652;2023-10-13T07:54:10;21.60;;;7.53;;
68449;SDS011;67758;39.572;2.652;2023-10-13T07:56:49;16.73;;;7.20;;
68449;SDS011;67758;39.572;2.652;2023-10-13T07:59:16;17.08;;;7.95;;
68449;SDS011;67758;39.572;2.652;2023-10-13T08:01:41;18.83;;;7.50;;
68449;SDS011;67758;39.572;2.652;2023-10-13T08:04:11;16.25;;;8.07;;
68449;SDS011;67758;39.572;2.652;2023-10-13T08:06:37;19.55;;;8.68;;
68449;SDS011;67758;39.572;2.652;2023-10-13T08:09:05;14.38;;;8.20;;
68449;SDS011;67758;39.572;2.652;2023-10-13T08:11:33;16.63;;;7.47;;
68449;SDS011;67758;39.572;2.652;2023-10-13T08:14:05;18.60;;;8.35;;
68449;SDS011;67758;39.572;2.652;2023-10-13T08:16:57;22.90;;;8.88;;
68449;SDS011;67758;39.572;2.652;2023-10-13T08:19:28;19.13;;;8.43;;
68449;SDS011;67758;39.572;2.652;2023-10-13T08:21:58;16.58;;;7.60;;
68449;SDS011;67758;39.572;2.652;2023-10-13T08:24:28;20.90;;;8.60;;
68449;SDS011;67758;39.572;2.652;2023-10-13T08:27:03;16.40;;;8.15;;
68449;SDS011;67758;39.572;2.652;2023-10-13T08:29:49;20.00;;;8.18;;
68449;SDS011;67758;39.572;2.652;2023-10-13T08:32:14;15.30;;;7.32;;
68449;SDS011;67758;39.572;2.652;2023-10-13T08:34:46;18.50;;;8.13;;
68449;SDS011;67758;39.572;2.652;2023-10-13T08:37:13;25.58;;;7.97;;
68449;SDS011;67758;39.572;2.652;2023-10-13T08:39:54;24.02;;;8.00;;
68449;SDS011;67758;39.572;2.652;2023-10-13T08:42:35;26.45;;;8.98;;
68449;SDS011;67758;39.572;2.652;2023-10-13T08:45:10;19.58;;;9.25;;
68449;SDS011;67758;39.572;2.652;2023-10-13T08:47:56;18.65;;;8.77;;
68449;SDS011;67758;39.572;2.652;2023-10-13T08:53:32;19.70;;;7.88;;
68449;SDS011;67758;39.572;2.652;2023-10-13T08:56:13;25.17;;;8.65;;
68449;SDS011;67758;39.572;2.652;2023-10-13T08:58:48;22.80;;;7.57;;
68449;SDS011;67758;39.572;2.652;2023-10-13T09:04:14;24.77;;;9.20;;
68449;SDS011;67758;39.572;2.652;2023-10-13T09:12:23;21.08;;;7.80;;
68449;SDS011;67758;39.572;2.652;2023-10-13T09:14:59;16.30;;;6.65;;
68449;SDS011;67758;39.572;2.652;2023-10-13T09:17:52;21.00;;;7.22;;
68449;SDS011;67758;39.572;2.652;2023-10-13T09:20:38;21.95;;;7.40;;
68449;SDS011;67758;39.572;2.652;2023-10-13T09:23:07;16.40;;;7.63;;
68449;SDS011;67758;39.572;2.652;2023-10-13T09:25:49;16.90;;;6.47;;
68449;SDS011;67758;39.572;2.652;2023-10-13T09:28:39;19.05;;;7.72;;
68449;SDS011;67758;39.572;2.652;2023-10-13T09:31:04;16.75;;;7.53;;
68449;SDS011;67758;39.572;2.652;2023-10-13T09:33:35;19.90;;;7.47;;
68449;SDS011;67758;39.572;2.652;2023-10-13T09:36:02;24.45;;;8.68;;
68449;SDS011;67758;39.572;2.652;2023-10-13T09:38:32;26.30;;;8.07;;
68449;SDS011;67758;39.572;2.652;2023-10-13T09:40:58;19.15;;;7.00;;
68449;SDS011;67758;39.572;2.652;2023-10-13T09:43:34;16.42;;;7.45;;
68449;SDS011;67758;39.572;2.652;2023-10-13T09:46:03;19.50;;;6.97;;
68449;SDS011;67758;39.572;2.652;2023-10-13T09:48:36;16.98;;;6.72;;
68449;SDS011;67758;39.572;2.652;2023-10-13T09:51:06;19.52;;;6.72;;
68449;SDS011;67758;39.572;2.652;2023-10-13T09:53:38;15.48;;;6.68;;
68449;SDS011;67758;39.572;2.652;2023-10-13T09:56:11;22.30;;;6.13;;
68449;SDS011;67758;39.572;2.652;2023-10-13T10:01:40;14.75;;;6.13;;
68449;SDS011;67758;39.572;2.652;2023-10-13T10:04:17;13.60;;;7.13;;
68449;SDS011;67758;39.572;2.652;2023-10-13T10:06:54;14.73;;;6.72;;
68449;SDS011;67758;39.572;2.652;2023-10-13T10:09:27;17.90;;;6.80;;
68449;SDS011;67758;39.572;2.652;2023-10-13T10:17:22;14.23;;;7.03;;
68449;SDS011;67758;39.572;2.652;2023-10-13T10:19:49;14.63;;;6.55;;
68449;SDS011;67758;39.572;2.652;2023-10-13T10:22:27;18.23;;;6.45;;
68449;SDS011;67758;39.572;2.652;2023-10-13T10:25:03;12.33;;;6.90;;
68449;SDS011;67758;39.572;2.652;2023-10-13T10:27:53;13.65;;;6.88;;
68449;SDS011;67758;39.572;2.652;2023-10-13T10:30:28;15.75;;;7.50;;
68449;SDS011;67758;39.572;2.652;2023-10-13T10:32:55;17.65;;;7.05;;
68449;SDS011;67758;39.572;2.652;2023-10-13T10:35:38;12.88;;;7.45;;
68449;SDS011;67758;39.572;2.652;2023-10-13T10:38:08;15.20;;;8.33;;
68449;SDS011;67758;39.572;2.652;2023-10-13T10:40:57;20.50;;;7.80;;
68449;SDS011;67758;39.572;2.652;2023-10-13T10:43:41;19.23;;;7.65;;
68449;SDS011;67758;39.572;2.652;2023-10-13T10:46:13;17.77;;;7.63;;
68449;SDS011;67758;39.572;2.652;2023-10-13T10:49:08;17.02;;;7.68;;
68449;SDS011;67758;39.572;2.652;2023-10-13T10:51:36;37.47;;;8.50;;
68449;SDS011;67758;39.572;2.652;2023-10-13T10:54:22;15.73;;;7.20;;
68449;SDS011;67758;39.572;2.652;2023-10-13T10:56:55;14.07;;;7.40;;
68449;SDS011;67758;39.572;2.652;2023-10-13T10:59:26;12.45;;;7.43;;
68449;SDS011;67758;39.572;2.652;2023-10-13T11:02:05;14.63;;;7.27;;
68449;SDS011;67758;39.572;2.652;2023-10-13T11:04:34;11.93;;;7.03;;
68449;SDS011;67758;39.572;2.652;2023-10-13T11:07:06;16.00;;;7.70;;
68449;SDS011;67758;39.572;2.652;2023-10-13T11:09:34;12.30;;;7.03;;
68449;SDS011;67758;39.572;2.652;2023-10-13T11:14:41;17.00;;;7.30;;
68449;SDS011;67758;39.572;2.652;2023-10-13T11:17:20;17.17;;;8.13;;
68449;SDS011;67758;39.572;2.652;2023-10-13T11:20:09;13.38;;;8.02;;
68449;SDS011;67758;39.572;2.652;2023-10-13T11:22:47;14.93;;;7.45;;
68449;SDS011;67758;39.572;2.652;2023-10-13T11:27:56;12.00;;;7.10;;
68449;SDS011;67758;39.572;2.652;2023-10-13T11:30:31;17.25;;;8.02;;
68449;SDS011;67758;39.572;2.652;2023-10-13T11:33:07;16.73;;;8.18;;
68449;SDS011;67758;39.572;2.652;2023-10-13T11:35:37;13.02;;;6.97;;
68449;SDS011;67758;39.572;2.652;2023-10-13T11:38:26;13.77;;;7.07;;
68449;SDS011;67758;39.572;2.652;2023-10-13T11:41:16;13.47;;;7.00;;
68449;SDS011;67758;39.572;2.652;2023-10-13T11:43:49;14.10;;;7.57;;
68449;SDS011;67758;39.572;2.652;2023-10-13T11:46:17;12.68;;;7.13;;
68449;SDS011;67758;39.572;2.652;2023-10-13T11:49:04;13.10;;;7.00;;
68449;SDS011;67758;39.572;2.652;2023-10-13T11:51:44;11.55;;;7.47;;
68449;SDS011;67758;39.572;2.652;2023-10-13T11:54:15;18.33;;;7.47;;
68449;SDS011;67758;39.572;2.652;2023-10-13T11:56:49;19.00;;;10.18;;
68449;SDS011;67758;39.572;2.652;2023-10-13T11:59:23;16.00;;;8.20;;
68449;SDS011;67758;39.572;2.652;2023-10-13T12:01:56;11.52;;;7.40;;
68449;SDS011;67758;39.572;2.652;2023-10-13T12:04:40;18.15;;;8.00;;
68449;SDS011;67758;39.572;2.652;2023-10-13T12:07:09;13.70;;;7.73;;
68449;SDS011;67758;39.572;2.652;2023-10-13T12:09:48;18.58;;;8.20;;
68449;SDS011;67758;39.572;2.652;2023-10-13T12:12:22;10.23;;;6.20;;
68449;SDS011;67758;39.572;2.652;2023-10-13T12:14:52;29.02;;;10.88;;
68449;SDS011;67758;39.572;2.652;2023-10-13T12:17:26;14.32;;;7.70;;
68449;SDS011;67758;39.572;2.652;2023-10-13T12:20:03;12.63;;;5.83;;
68449;SDS011;67758;39.572;2.652;2023-10-13T12:22:36;15.20;;;6.45;;
68449;SDS011;67758;39.572;2.652;2023-10-13T12:25:08;14.45;;;6.97;;
68449;SDS011;67758;39.572;2.652;2023-10-13T12:28:18;14.05;;;6.00;;
68449;SDS011;67758;39.572;2.652;2023-10-13T12:30:49;14.60;;;7.53;;
68449;SDS011;67758;39.572;2.652;2023-10-13T12:33:18;13.13;;;5.90;;
68449;SDS011;67758;39.572;2.652;2023-10-13T12:36:02;15.55;;;6.93;;
68449;SDS011;67758;39.572;2.652;2023-10-13T12:38:39;12.02;;;6.53;;
68449;SDS011;67758;39.572;2.652;2023-10-13T12:41:11;22.27;;;7.93;;
68449;SDS011;67758;39.572;2.652;2023-10-13T12:43:55;11.60;;;5.90;;
68449;SDS011;67758;39.572;2.652;2023-10-13T12:46:47;13.10;;;6.70;;
68449;SDS011;67758;39.572;2.652;2023-10-13T12:49:34;13.02;;;6.22;;
68449;SDS011;67758;39.572;2.652;2023-10-13T12:52:12;17.15;;;7.30;;
68449;SDS011;67758;39.572;2.652;2023-10-13T12:54:44;12.38;;;6.05;;
68449;SDS011;67758;39.572;2.652;2023-10-13T12:57:26;13.55;;;6.88;;
68449;SDS011;67758;39.572;2.652;2023-10-13T12:59:52;14.20;;;6.33;;
68449;SDS011;67758;39.572;2.652;2023-10-13T13:02:25;14.98;;;6.38;;
68449;SDS011;67758;39.572;2.652;2023-10-13T13:04:52;14.43;;;6.63;;
68449;SDS011;67758;39.572;2.652;2023-10-13T13:07:40;12.70;;;7.03;;
68449;SDS011;67758;39.572;2.652;2023-10-13T13:10:15;14.23;;;6.05;;
68449;SDS011;67758;39.572;2.652;2023-10-13T13:12:41;13.97;;;6.23;;
68449;SDS011;67758;39.572;2.652;2023-10-13T13:15:07;14.85;;;7.30;;
68449;SDS011;67758;39.572;2.652;2023-10-13T13:17:38;13.55;;;6.05;;
68449;SDS011;67758;39.572;2.652;2023-10-13T13:20:05;14.85;;;6.20;;
68449;SDS011;67758;39.572;2.652;2023-10-13T13:22:39;18.35;;;8.25;;
68449;SDS011;67758;39.572;2.652;2023-10-13T13:25:05;13.57;;;5.70;;
68449;SDS011;67758;39.572;2.652;2023-10-13T13:27:36;13.80;;;5.40;;
68449;SDS011;67758;39.572;2.652;2023-10-13T13:30:02;14.65;;;6.03;;
68449;SDS011;67758;39.572;2.652;2023-10-13T13:32:38;11.75;;;5.82;;
68449;SDS011;67758;39.572;2.652;2023-10-13T13:35:06;14.73;;;6.43;;
68449;SDS011;67758;39.572;2.652;2023-10-13T13:37:33;25.23;;;7.30;;
68449;SDS011;67758;39.572;2.652;2023-10-13T13:40:03;21.58;;;7.38;;
68449;SDS011;67758;39.572;2.652;2023-10-13T13:42:43;16.25;;;7.40;;
68449;SDS011;67758;39.572;2.652;2023-10-13T13:45:16;13.75;;;6.10;;
68449;SDS011;67758;39.572;2.652;2023-10-13T13:47:49;14.17;;;6.83;;
68449;SDS011;67758;39.572;2.652;2023-10-13T13:50:19;34.42;;;7.90;;
68449;SDS011;67758;39.572;2.652;2023-10-13T13:52:54;13.98;;;7.22;;
68449;SDS011;67758;39.572;2.652;2023-10-13T13:55:25;12.88;;;6.38;;
68449;SDS011;67758;39.572;2.652;2023-10-13T13:57:57;12.70;;;6.50;;
68449;SDS011;67758;39.572;2.652;2023-10-13T14:00:23;13.50;;;6.60;;
68449;SDS011;67758;39.572;2.652;2023-10-13T14:03:05;11.82;;;6.40;;
68449;SDS011;67758;39.572;2.652;2023-10-13T14:05:41;11.10;;;6.07;;
68449;SDS011;67758;39.572;2.652;2023-10-13T14:08:07;16.38;;;5.70;;
68449;SDS011;67758;39.572;2.652;2023-10-13T14:10:37;10.90;;;5.60;;
68449;SDS011;67758;39.572;2.652;2023-10-13T14:13:22;18.60;;;6.30;;
68449;SDS011;67758;39.572;2.652;2023-10-13T14:16:08;14.57;;;5.93;;
68449;SDS011;67758;39.572;2.652;2023-10-13T14:18:44;16.02;;;6.47;;
68449;SDS011;67758;39.572;2.652;2023-10-13T14:21:11;13.57;;;6.20;;
68449;SDS011;67758;39.572;2.652;2023-10-13T14:26:17;11.33;;;6.47;;
68449;SDS011;67758;39.572;2.652;2023-10-13T14:28:47;10.65;;;6.10;;
68449;SDS011;67758;39.572;2.652;2023-10-13T14:31:33;23.23;;;7.30;;
68449;SDS011;67758;39.572;2.652;2023-10-13T14:34:03;21.20;;;7.28;;
68449;SDS011;67758;39.572;2.652;2023-10-13T14:36:31;14.02;;;5.85;;
68449;SDS011;67758;39.572;2.652;2023-10-13T14:39:00;12.97;;;7.27;;
68449;SDS011;67758;39.572;2.652;2023-10-13T14:41:26;10.20;;;5.95;;
68449;SDS011;67758;39.572;2.652;2023-10-13T14:43:52;11.80;;;5.60;;
68449;SDS011;67758;39.572;2.652;2023-10-13T14:46:18;12.33;;;5.73;;
68449;SDS011;67758;39.572;2.652;2023-10-13T14:48:53;12.23;;;6.03;;
68449;SDS011;67758;39.572;2.652;2023-10-13T14:51:19;10.73;;;5.57;;
68449;SDS011;67758;39.572;2.652;2023-10-13T14:53:48;14.23;;;6.23;;
68449;SDS011;67758;39.572;2.652;2023-10-13T14:56:14;9.10;;;4.75;;
68449;SDS011;67758;39.572;2.652;2023-10-13T14:58:41;13.25;;;5.68;;
68449;SDS011;67758;39.572;2.652;2023-10-13T15:01:15;21.67;;;6.20;;
68449;SDS011;67758;39.572;2.652;2023-10-13T15:03:42;15.18;;;6.47;;
68449;SDS011;67758;39.572;2.652;2023-10-13T15:06:16;11.37;;;5.83;;
68449;SDS011;67758;39.572;2.652;2023-10-13T15:08:46;13.32;;;5.45;;
68449;SDS011;67758;39.572;2.652;2023-10-13T15:11:15;15.00;;;6.95;;
68449;SDS011;67758;39.572;2.652;2023-10-13T15:13:43;11.40;;;5.63;;
68449;SDS011;67758;39.572;2.652;2023-10-13T15:16:16;13.93;;;5.95;;
68449;SDS011;67758;39.572;2.652;2023-10-13T15:18:43;10.57;;;5.53;;
68449;SDS011;67758;39.572;2.652;2023-10-13T15:21:10;9.07;;;4.78;;
68449;SDS011;67758;39.572;2.652;2023-10-13T15:23:36;15.40;;;5.55;;
68449;SDS011;67758;39.572;2.652;2023-10-13T15:26:10;11.33;;;6.03;;
68449;SDS011;67758;39.572;2.652;2023-10-13T15:28:42;9.05;;;5.53;;
68449;SDS011;67758;39.572;2.652;2023-10-13T15:31:28;10.20;;;5.80;;
68449;SDS011;67758;39.572;2.652;2023-10-13T15:33:59;9.55;;;5.40;;
68449;SDS011;67758;39.572;2.652;2023-10-13T15:36:32;8.98;;;5.55;;
68449;SDS011;67758;39.572;2.652;2023-10-13T15:38:58;12.37;;;5.43;;
68449;SDS011;67758;39.572;2.652;2023-10-13T15:41:24;11.68;;;5.93;;
68449;SDS011;67758;39.572;2.652;2023-10-13T15:43:51;10.45;;;5.13;;
68449;SDS011;67758;39.572;2.652;2023-10-13T15:46:19;11.27;;;5.88;;
68449;SDS011;67758;39.572;2.652;2023-10-13T15:48:50;12.07;;;5.80;;
68449;SDS011;67758;39.572;2.652;2023-10-13T15:51:16;11.85;;;5.30;;
68449;SDS011;67758;39.572;2.652;2023-10-13T15:53:43;12.48;;;5.20;;